Elberon, Virginia
Current Conditions -  °F | °C
As of 8:54 PM on Wednesday 26 Nov 2014 (Local Time) from KAKQ Reporting Station
Overcast Overcast  
Wind Chill: 39°   Ceiling: 800
Heat Index: 39°   Visibility: 10mi
Dew Point: 36°   Wind: 3mph
Humidity: 89%   Direction: 280°W
Pressure: 30.02"   Gusts: NA
Location:  37.06°N, 76.84°W
Report Text: KAKQ 270154Z AUTO 28003KT 10SM BKN008 OVC012 04/02 A3002 RMK AO2 CIG 006V010 SLP168 T00390022 TSNO
Loading
Personal Weather Stations






























Interactive Weather Map New forecast layout! Learn more

10-Day Weather Forecast

Advertisements
Track Severe Weather on mobile